Friday, February 23, 2018, 2:50 AM GMT
Back to Local

CYHU, Saint Hubert Airport

Location: , , Canada Lat: 45.517
Local Time: 2:50 AM GMT ( 2:50 GMT) Lon: -73.417
Time Zone: GMT Elev: 88 ft

Show me the last for .
Show Coded

Time T Td Feel RH Dir Speed Gust Alt SLP Vis Weather Sky Remarks
2018-02-23 02:00 18 12 - 78 - Calm - 30.75 30.76 9 CLR None
2018-02-23 01:00 19 10 - 67 140° 2 - 30.75 30.76 9 CLR None
2018-02-23 00:00 19 10 14 67 140° 3 - 30.74 30.75 9 CLR None
2018-02-22 23:00 21 12 16 67 110° 3 - 30.73 30.74 9 CLR None
2018-02-22 22:00 23 10 - 57 - Calm - 30.73 30.74 9 BKN220 None
2018-02-22 21:00 23 10 18 57 60° 3 - 30.72 30.73 9 FEW170 BKN200 None
2018-02-22 20:00 23 9 18 53 30° 3 - 30.75 30.76 9 CLR None
2018-02-22 19:00 23 9 18 53 60° 3 - 30.75 30.76 9 BKN140 BKN190 None
2018-02-22 18:00 21 9 15 57 350° 5 - 30.77 30.78 9 FEW130 None
2018-02-22 17:00 21 9 15 57 40° 5 - 30.76 30.77 9 BKN150 BKN170 None
2018-02-22 16:00 19 9 9 62 30° 9 - 30.78 30.79 9 OVC160 None
2018-02-22 15:00 19 9 9 62 50° 8 - 30.78 30.78 9 OVC170 None
2018-02-22 14:00 19 9 9 62 70° 9 - 30.78 30.78 9 FEW160 BKN190 BKN210 None
2018-02-22 13:00 19 7 10 57 50° 7 - 30.76 30.77 9 BKN220 None
2018-02-22 12:00 19 10 9 67 30° 8 - 30.74 30.75 9 OVC230 Pressure rising rapidly
2018-02-22 11:00 18 10 8 72 40° 7 - 30.72 30.73 9 CLR None
2018-02-22 10:00 19 12 9 73 30° 8 - 30.71 30.72 9 CLR None
2018-02-22 09:00 21 12 14 67 360° 6 - 30.69 30.70 9 CLR None
2018-02-22 08:00 23 12 15 62 350° 7 - 30.68 30.69 9 CLR None
2018-02-22 07:00 23 12 16 62 20° 6 - 30.66 30.67 9 CLR None
2018-02-22 06:00 27 12 20 53 330° 6 - 30.64 30.65 9 CLR None
2018-02-22 05:00 28 12 18 50 340° 12 - 30.60 30.61 9 CLR None
2018-02-22 04:00 30 18 21 58 320° 10 - 30.57 30.58 9 CLR None

Support USWX by starting your Amazon purchase here.